sensor_id;sensor_type;location;lat;lon;timestamp;P1;durP1;ratioP1;P2;durP2;ratioP2
22861;SDS011;11598;50.652;6.172;2024-02-16T00:01:28;5.63;;;1.75;;
22861;SDS011;11598;50.652;6.172;2024-02-16T00:11:28;4.82;;;1.60;;
22861;SDS011;11598;50.652;6.172;2024-02-16T00:21:28;4.95;;;1.38;;
22861;SDS011;11598;50.652;6.172;2024-02-16T00:31:29;4.78;;;1.70;;
22861;SDS011;11598;50.652;6.172;2024-02-16T00:41:30;5.82;;;1.88;;
22861;SDS011;11598;50.652;6.172;2024-02-16T00:51:30;4.65;;;1.65;;
22861;SDS011;11598;50.652;6.172;2024-02-16T01:01:31;9.35;;;1.90;;
22861;SDS011;11598;50.652;6.172;2024-02-16T01:11:31;4.72;;;1.83;;
22861;SDS011;11598;50.652;6.172;2024-02-16T01:21:32;4.95;;;1.30;;
22861;SDS011;11598;50.652;6.172;2024-02-16T01:31:32;3.67;;;1.35;;
22861;SDS011;11598;50.652;6.172;2024-02-16T01:41:33;5.32;;;1.77;;
22861;SDS011;11598;50.652;6.172;2024-02-16T01:51:33;5.68;;;1.63;;
22861;SDS011;11598;50.652;6.172;2024-02-16T02:01:35;7.80;;;1.80;;
22861;SDS011;11598;50.652;6.172;2024-02-16T02:11:36;4.75;;;1.42;;
22861;SDS011;11598;50.652;6.172;2024-02-16T02:21:37;4.93;;;1.88;;
22861;SDS011;11598;50.652;6.172;2024-02-16T02:31:38;7.03;;;1.60;;
22861;SDS011;11598;50.652;6.172;2024-02-16T02:41:38;8.07;;;2.13;;
22861;SDS011;11598;50.652;6.172;2024-02-16T02:51:39;4.68;;;1.90;;
22861;SDS011;11598;50.652;6.172;2024-02-16T03:01:39;7.32;;;1.95;;
22861;SDS011;11598;50.652;6.172;2024-02-16T03:11:39;4.85;;;1.70;;
22861;SDS011;11598;50.652;6.172;2024-02-16T03:21:40;6.68;;;1.90;;
22861;SDS011;11598;50.652;6.172;2024-02-16T03:31:40;6.22;;;1.65;;
22861;SDS011;11598;50.652;6.172;2024-02-16T03:41:41;5.97;;;1.85;;
22861;SDS011;11598;50.652;6.172;2024-02-16T03:51:41;8.10;;;2.13;;
22861;SDS011;11598;50.652;6.172;2024-02-16T04:01:41;8.48;;;2.45;;
22861;SDS011;11598;50.652;6.172;2024-02-16T04:11:42;7.25;;;2.40;;
22861;SDS011;11598;50.652;6.172;2024-02-16T04:21:42;6.72;;;2.53;;
22861;SDS011;11598;50.652;6.172;2024-02-16T04:31:43;7.50;;;2.35;;
22861;SDS011;11598;50.652;6.172;2024-02-16T04:41:45;7.13;;;2.50;;
22861;SDS011;11598;50.652;6.172;2024-02-16T04:51:45;7.10;;;2.35;;
22861;SDS011;11598;50.652;6.172;2024-02-16T05:01:47;6.68;;;2.10;;
22861;SDS011;11598;50.652;6.172;2024-02-16T05:11:47;6.65;;;2.40;;
22861;SDS011;11598;50.652;6.172;2024-02-16T05:21:48;6.20;;;2.25;;
22861;SDS011;11598;50.652;6.172;2024-02-16T05:31:50;7.85;;;2.25;;
22861;SDS011;11598;50.652;6.172;2024-02-16T05:41:54;7.93;;;1.70;;
22861;SDS011;11598;50.652;6.172;2024-02-16T05:51:55;6.55;;;2.20;;
22861;SDS011;11598;50.652;6.172;2024-02-16T06:02:14;5.65;;;1.88;;
22861;SDS011;11598;50.652;6.172;2024-02-16T06:12:15;9.40;;;1.85;;
22861;SDS011;11598;50.652;6.172;2024-02-16T06:22:16;5.65;;;1.88;;
22861;SDS011;11598;50.652;6.172;2024-02-16T06:32:16;6.43;;;2.10;;
22861;SDS011;11598;50.652;6.172;2024-02-16T06:42:17;7.13;;;2.08;;
22861;SDS011;11598;50.652;6.172;2024-02-16T06:52:17;7.75;;;2.33;;
22861;SDS011;11598;50.652;6.172;2024-02-16T07:02:18;8.88;;;2.20;;
22861;SDS011;11598;50.652;6.172;2024-02-16T07:12:18;5.97;;;2.30;;
22861;SDS011;11598;50.652;6.172;2024-02-16T07:22:19;7.70;;;2.30;;
22861;SDS011;11598;50.652;6.172;2024-02-16T07:32:19;9.27;;;2.08;;
22861;SDS011;11598;50.652;6.172;2024-02-16T07:42:19;7.10;;;2.75;;
22861;SDS011;11598;50.652;6.172;2024-02-16T07:52:20;11.65;;;2.83;;
22861;SDS011;11598;50.652;6.172;2024-02-16T08:02:21;8.77;;;2.35;;
22861;SDS011;11598;50.652;6.172;2024-02-16T08:12:21;7.10;;;2.15;;
22861;SDS011;11598;50.652;6.172;2024-02-16T08:22:22;8.45;;;2.60;;
22861;SDS011;11598;50.652;6.172;2024-02-16T08:32:23;7.97;;;2.53;;
22861;SDS011;11598;50.652;6.172;2024-02-16T08:42:24;6.60;;;2.13;;
22861;SDS011;11598;50.652;6.172;2024-02-16T08:52:24;6.57;;;2.40;;
22861;SDS011;11598;50.652;6.172;2024-02-16T09:02:26;8.50;;;2.40;;
22861;SDS011;11598;50.652;6.172;2024-02-16T09:12:27;9.70;;;2.35;;
22861;SDS011;11598;50.652;6.172;2024-02-16T09:22:27;7.33;;;2.40;;
22861;SDS011;11598;50.652;6.172;2024-02-16T09:32:28;9.38;;;2.33;;
22861;SDS011;11598;50.652;6.172;2024-02-16T09:42:28;9.90;;;2.90;;
22861;SDS011;11598;50.652;6.172;2024-02-16T09:52:28;7.68;;;2.58;;
22861;SDS011;11598;50.652;6.172;2024-02-16T10:02:39;9.98;;;2.60;;
22861;SDS011;11598;50.652;6.172;2024-02-16T10:12:42;7.17;;;2.47;;
22861;SDS011;11598;50.652;6.172;2024-02-16T10:22:43;8.55;;;2.70;;
22861;SDS011;11598;50.652;6.172;2024-02-16T10:32:43;9.02;;;2.90;;
22861;SDS011;11598;50.652;6.172;2024-02-16T10:42:48;7.05;;;2.17;;
22861;SDS011;11598;50.652;6.172;2024-02-16T10:52:50;7.95;;;2.50;;
22861;SDS011;11598;50.652;6.172;2024-02-16T11:02:57;8.87;;;2.13;;
22861;SDS011;11598;50.652;6.172;2024-02-16T11:13:01;8.23;;;2.20;;
22861;SDS011;11598;50.652;6.172;2024-02-16T11:23:09;5.80;;;2.30;;
22861;SDS011;11598;50.652;6.172;2024-02-16T11:33:12;6.40;;;2.53;;
22861;SDS011;11598;50.652;6.172;2024-02-16T11:43:19;8.40;;;2.73;;
22861;SDS011;11598;50.652;6.172;2024-02-16T11:53:25;10.75;;;3.58;;
22861;SDS011;11598;50.652;6.172;2024-02-16T12:03:26;9.07;;;3.22;;
22861;SDS011;11598;50.652;6.172;2024-02-16T12:13:27;8.40;;;3.42;;
22861;SDS011;11598;50.652;6.172;2024-02-16T12:23:28;7.95;;;4.07;;
22861;SDS011;11598;50.652;6.172;2024-02-16T12:33:32;9.63;;;4.40;;
22861;SDS011;11598;50.652;6.172;2024-02-16T12:43:32;9.85;;;5.38;;
22861;SDS011;11598;50.652;6.172;2024-02-16T12:53:33;9.15;;;5.00;;
22861;SDS011;11598;50.652;6.172;2024-02-16T13:03:40;9.90;;;5.53;;
22861;SDS011;11598;50.652;6.172;2024-02-16T13:13:40;14.50;;;6.05;;
22861;SDS011;11598;50.652;6.172;2024-02-16T13:23:41;14.13;;;6.28;;
22861;SDS011;11598;50.652;6.172;2024-02-16T13:33:41;10.93;;;5.53;;
22861;SDS011;11598;50.652;6.172;2024-02-16T13:43:41;12.40;;;5.70;;
22861;SDS011;11598;50.652;6.172;2024-02-16T13:53:42;8.80;;;5.03;;
22861;SDS011;11598;50.652;6.172;2024-02-16T14:03:42;8.93;;;5.03;;
22861;SDS011;11598;50.652;6.172;2024-02-16T14:13:43;10.87;;;4.87;;
22861;SDS011;11598;50.652;6.172;2024-02-16T14:23:44;7.50;;;4.07;;
22861;SDS011;11598;50.652;6.172;2024-02-16T14:33:44;11.27;;;3.80;;
22861;SDS011;11598;50.652;6.172;2024-02-16T14:43:45;7.90;;;3.55;;
22861;SDS011;11598;50.652;6.172;2024-02-16T14:53:46;9.25;;;3.08;;
22861;SDS011;11598;50.652;6.172;2024-02-16T15:03:47;6.20;;;2.37;;
22861;SDS011;11598;50.652;6.172;2024-02-16T15:13:47;3.47;;;1.40;;
22861;SDS011;11598;50.652;6.172;2024-02-16T15:23:49;4.38;;;1.45;;
22861;SDS011;11598;50.652;6.172;2024-02-16T15:33:49;3.90;;;1.73;;
22861;SDS011;11598;50.652;6.172;2024-02-16T15:43:50;5.67;;;2.47;;
22861;SDS011;11598;50.652;6.172;2024-02-16T15:53:50;5.63;;;2.80;;
22861;SDS011;11598;50.652;6.172;2024-02-16T16:03:51;6.90;;;3.17;;
22861;SDS011;11598;50.652;6.172;2024-02-16T16:13:51;11.20;;;4.15;;
22861;SDS011;11598;50.652;6.172;2024-02-16T16:23:52;9.85;;;4.53;;
22861;SDS011;11598;50.652;6.172;2024-02-16T16:33:52;19.08;;;7.00;;
22861;SDS011;11598;50.652;6.172;2024-02-16T16:43:52;24.90;;;8.70;;
22861;SDS011;11598;50.652;6.172;2024-02-16T16:53:53;32.05;;;10.15;;
22861;SDS011;11598;50.652;6.172;2024-02-16T17:03:53;27.20;;;12.10;;
22861;SDS011;11598;50.652;6.172;2024-02-16T17:13:54;42.17;;;14.35;;
22861;SDS011;11598;50.652;6.172;2024-02-16T17:23:55;81.13;;;21.33;;
22861;SDS011;11598;50.652;6.172;2024-02-16T17:33:55;55.83;;;19.67;;
22861;SDS011;11598;50.652;6.172;2024-02-16T17:43:55;49.75;;;17.70;;
22861;SDS011;11598;50.652;6.172;2024-02-16T17:53:56;52.13;;;20.13;;
22861;SDS011;11598;50.652;6.172;2024-02-16T18:03:56;95.70;;;26.30;;
22861;SDS011;11598;50.652;6.172;2024-02-16T18:13:57;100.13;;;27.23;;
22861;SDS011;11598;50.652;6.172;2024-02-16T18:23:57;95.03;;;27.05;;
22861;SDS011;11598;50.652;6.172;2024-02-16T18:33:58;134.57;;;29.73;;
22861;SDS011;11598;50.652;6.172;2024-02-16T18:43:58;203.80;;;35.90;;
22861;SDS011;11598;50.652;6.172;2024-02-16T18:53:58;91.85;;;31.42;;
22861;SDS011;11598;50.652;6.172;2024-02-16T19:03:59;227.63;;;47.97;;
22861;SDS011;11598;50.652;6.172;2024-02-16T19:14:00;121.07;;;37.72;;
22861;SDS011;11598;50.652;6.172;2024-02-16T19:24:01;302.48;;;45.88;;
22861;SDS011;11598;50.652;6.172;2024-02-16T19:34:03;111.03;;;33.65;;
22861;SDS011;11598;50.652;6.172;2024-02-16T19:44:04;152.77;;;34.00;;
22861;SDS011;11598;50.652;6.172;2024-02-16T19:54:04;205.95;;;40.17;;
22861;SDS011;11598;50.652;6.172;2024-02-16T20:04:05;154.77;;;34.33;;
22861;SDS011;11598;50.652;6.172;2024-02-16T20:14:05;251.90;;;43.80;;
22861;SDS011;11598;50.652;6.172;2024-02-16T20:24:06;162.57;;;39.15;;
22861;SDS011;11598;50.652;6.172;2024-02-16T20:34:07;198.25;;;39.53;;
22861;SDS011;11598;50.652;6.172;2024-02-16T20:44:08;290.55;;;45.28;;
22861;SDS011;11598;50.652;6.172;2024-02-16T20:54:08;114.68;;;35.58;;
22861;SDS011;11598;50.652;6.172;2024-02-16T21:04:08;106.57;;;35.17;;
22861;SDS011;11598;50.652;6.172;2024-02-16T21:14:09;140.60;;;38.97;;
22861;SDS011;11598;50.652;6.172;2024-02-16T21:24:09;147.57;;;39.05;;
22861;SDS011;11598;50.652;6.172;2024-02-16T21:34:10;117.15;;;38.75;;
22861;SDS011;11598;50.652;6.172;2024-02-16T21:44:11;158.77;;;39.97;;
22861;SDS011;11598;50.652;6.172;2024-02-16T21:54:12;95.63;;;33.90;;
22861;SDS011;11598;50.652;6.172;2024-02-16T22:04:13;102.93;;;29.38;;
22861;SDS011;11598;50.652;6.172;2024-02-16T22:14:13;81.85;;;23.15;;
22861;SDS011;11598;50.652;6.172;2024-02-16T22:24:13;132.25;;;27.58;;
22861;SDS011;11598;50.652;6.172;2024-02-16T22:34:14;89.95;;;26.17;;
22861;SDS011;11598;50.652;6.172;2024-02-16T22:44:14;105.30;;;24.77;;
22861;SDS011;11598;50.652;6.172;2024-02-16T22:54:14;92.50;;;22.73;;
22861;SDS011;11598;50.652;6.172;2024-02-16T23:04:15;134.52;;;31.30;;
22861;SDS011;11598;50.652;6.172;2024-02-16T23:14:15;95.30;;;30.00;;
22861;SDS011;11598;50.652;6.172;2024-02-16T23:24:16;98.38;;;27.85;;
22861;SDS011;11598;50.652;6.172;2024-02-16T23:34:16;101.57;;;28.58;;
22861;SDS011;11598;50.652;6.172;2024-02-16T23:44:17;91.22;;;27.45;;
22861;SDS011;11598;50.652;6.172;2024-02-16T23:54:17;76.03;;;24.88;;
